Dustin Danos — WDE9077 — position and weather

sailwx.info

Track history (hours):
 
Tides and Currents Weather Stations Pressure Air Temp Water Temp Dewpoint Dewpoint Depression Visibility Wind Speed Wind Dir Waves Ship Positions

Dustin Danos

Owner: Offshore Transport Services LLC, Cut Off, LA. More information available from US FCC via Universal Licensing System and Coast Guard Vessel Documentation Center.

Last reported at 2018-Feb-16 20:39 UTC. Time now 2018-Feb-21 09:26 UTC.
Position N 29°36' W 092°18'.

Length 44 m.

Type: Cargo ship. MMSI: 367413160.

Date/timePositionNaut miles runAvg speedWind from/ knotsBaromVisibWave heightAir tempDewpointWater temp
2018-Feb-16 20:39N 29°36' W 092°18'1 6.3
2018-Feb-16 20:30N 29°36' W 092°17'3 5.7
2018-Feb-16 20:00N 29°39' W 092°16'3 6.2
2018-Feb-16 19:30N 29°42' W 092°15'3 6.1
2018-Feb-16 19:00N 29°45' W 092°13'3 6.4
2018-Feb-16 18:30N 29°46' W 092°10'1 1.5
2018-Feb-16 18:00N 29°47' W 092°10'0 0.0
2018-Feb-16 17:30N 29°47' W 092°10'1 1.2
2018-Feb-16 17:00N 29°47' W 092°09'0 0.4
2018-Feb-16 16:30N 29°47' W 092°09'0 0.7
2018-Feb-16 16:00N 29°47' W 092°09'1 2.8
2018-Feb-16 15:30N 29°46' W 092°10'2 3.4
2018-Feb-16 15:00N 29°45' W 092°12'2 3.4
2018-Feb-16 14:30N 29°47' W 092°11'0 0.0
2018-Feb-16 14:00N 29°47' W 092°11'0 0.0
2018-Feb-16 13:30N 29°47' W 092°11'0 0.0
2018-Feb-16 13:00N 29°47' W 092°11'0 0.0
2018-Feb-16 12:30N 29°47' W 092°11'0 0.0
2018-Feb-16 12:00N 29°47' W 092°11'0 0.0
2018-Feb-16 11:30N 29°47' W 092°11'0 0.0
2018-Feb-16 11:00N 29°47' W 092°11'0 0.0
2018-Feb-16 10:30N 29°47' W 092°11'0 0.0
2018-Feb-16 10:00N 29°47' W 092°11'0 0.0
2018-Feb-16 09:30N 29°47' W 092°11'0 0.0
2018-Feb-16 09:00N 29°47' W 092°11'0 0.0
2018-Feb-16 08:30N 29°47' W 092°11'0 0.0
2018-Feb-16 08:00N 29°47' W 092°11'0 0.0
2018-Feb-16 07:30N 29°47' W 092°11'0 0.0
2018-Feb-16 07:00N 29°47' W 092°11'0 0.0
2018-Feb-16 06:30N 29°47' W 092°11'0 0.0
2018-Feb-16 06:00N 29°47' W 092°11'0 0.0
2018-Feb-16 05:30N 29°47' W 092°11'0 0.0
2018-Feb-16 05:00N 29°47' W 092°11'0 0.0
2018-Feb-16 04:30N 29°47' W 092°11'0 0.0
2018-Feb-16 04:00N 29°47' W 092°11'0 0.0
2018-Feb-16 03:30N 29°47' W 092°11'0 0.0
2018-Feb-16 03:00N 29°47' W 092°11'0 0.0
2018-Feb-16 02:30N 29°47' W 092°11'0 0.0
2018-Feb-16 02:00N 29°47' W 092°11'0 0.0
2018-Feb-16 01:30N 29°47' W 092°11'0 0.0
2018-Feb-16 01:00N 29°47' W 092°11'0 0.0
2018-Feb-16 00:30N 29°47' W 092°11'0 0.0
2018-Feb-16 00:00N 29°47' W 092°11'0 0.0
2018-Feb-15 23:30N 29°47' W 092°11'0 0.0
2018-Feb-15 23:00N 29°47' W 092°11'0 0.0
2018-Feb-15 22:30N 29°47' W 092°11'0 0.0
2018-Feb-15 22:00N 29°47' W 092°11'0 0.0
2018-Feb-15 21:29N 29°47' W 092°11'0 0.0
2018-Feb-15 21:00N 29°47' W 092°11'0 0.0
2018-Feb-15 20:30N 29°47' W 092°11'0 0.0
2018-Feb-15 20:00N 29°47' W 092°11'0 0.0
2018-Feb-15 19:30N 29°47' W 092°11'0 0.0
2018-Feb-15 19:00N 29°47' W 092°11'0 0.0
2018-Feb-15 18:30N 29°47' W 092°11'0 0.0
2018-Feb-15 18:00N 29°47' W 092°11'0 0.0
2018-Feb-15 17:30N 29°47' W 092°11'0 0.0
2018-Feb-15 17:00N 29°47' W 092°11'0 0.0
2018-Feb-15 16:30N 29°47' W 092°11'0 0.0
2018-Feb-15 16:00N 29°47' W 092°11'0 0.0
2018-Feb-15 15:30N 29°47' W 092°11'0 0.0
2018-Feb-15 15:00N 29°47' W 092°11'0 0.0
2018-Feb-15 14:30N 29°47' W 092°11'0 0.0
2018-Feb-15 14:00N 29°47' W 092°11'1 1.0
2018-Feb-15 13:29N 29°47' W 092°11'1 2.4
2018-Feb-15 13:00N 29°47' W 092°09'0 0.0
2018-Feb-15 12:30N 29°47' W 092°09'0 0.0
2018-Feb-15 12:00N 29°47' W 092°09'0 0.0
2018-Feb-15 11:30N 29°47' W 092°09'0 0.0
2018-Feb-15 11:00N 29°47' W 092°09'0 0.0
2018-Feb-15 10:30N 29°47' W 092°09'0 0.0
2018-Feb-15 10:00N 29°47' W 092°09'0 0.0
2018-Feb-15 09:30N 29°47' W 092°09'0 0.0
2018-Feb-15 09:00N 29°47' W 092°09'0 0.0
2018-Feb-15 08:30N 29°47' W 092°09'0 0.0
2018-Feb-15 08:00N 29°47' W 092°09'0 0.0
2018-Feb-15 07:30N 29°47' W 092°09'0 0.0
2018-Feb-15 07:00N 29°47' W 092°09'0 0.0
2018-Feb-15 06:30N 29°47' W 092°09'0 0.0
2018-Feb-15 06:00N 29°47' W 092°09'0 0.0
2018-Feb-15 05:30N 29°47' W 092°09'0 0.0
2018-Feb-15 05:00N 29°47' W 092°09'0 0.0
2018-Feb-15 04:30N 29°47' W 092°09'0 0.0
2018-Feb-15 04:00N 29°47' W 092°09'0 0.0
2018-Feb-15 03:30N 29°47' W 092°09'0 0.0
2018-Feb-15 03:00N 29°47' W 092°09'0 0.0
2018-Feb-15 02:30N 29°47' W 092°09'3 6.9
2018-Feb-15 02:00N 29°45' W 092°13'3 6.6
2018-Feb-15 01:30N 29°42' W 092°15'4 6.6
2018-Feb-15 00:58N 29°39' W 092°16'  
2018-Feb-08 19:30N 29°47' W 092°11'  
Track history (hours):
 
Tides and Currents Weather Stations Pressure Air Temp Water Temp Dewpoint Dewpoint Depression Visibility Wind Speed Wind Dir Waves Ship Positions

Dustin Danos

Owner: Offshore Transport Services LLC, Cut Off, LA. More information available from US FCC via Universal Licensing System and Coast Guard Vessel Documentation Center.

Last reported at 2018-Feb-16 20:39 UTC. Time now 2018-Feb-21 09:26 UTC.
Position N 29°36' W 092°18'.

Length 44 m.

Type: Cargo ship. MMSI: 367413160.

Date/timePositionNaut miles runAvg speedWind from/ knotsBaromVisibWave heightAir tempDewpointWater temp
2018-Feb-16 20:39N 29°36' W 092°18'1 6.3
2018-Feb-16 20:30N 29°36' W 092°17'3 5.7
2018-Feb-16 20:00N 29°39' W 092°16'3 6.2
2018-Feb-16 19:30N 29°42' W 092°15'3 6.1
2018-Feb-16 19:00N 29°45' W 092°13'3 6.4
2018-Feb-16 18:30N 29°46' W 092°10'1 1.5
2018-Feb-16 18:00N 29°47' W 092°10'0 0.0
2018-Feb-16 17:30N 29°47' W 092°10'1 1.2
2018-Feb-16 17:00N 29°47' W 092°09'0 0.4
2018-Feb-16 16:30N 29°47' W 092°09'0 0.7
2018-Feb-16 16:00N 29°47' W 092°09'1 2.8
2018-Feb-16 15:30N 29°46' W 092°10'2 3.4
2018-Feb-16 15:00N 29°45' W 092°12'2 3.4
2018-Feb-16 14:30N 29°47' W 092°11'0 0.0
2018-Feb-16 14:00N 29°47' W 092°11'0 0.0
2018-Feb-16 13:30N 29°47' W 092°11'0 0.0
2018-Feb-16 13:00N 29°47' W 092°11'0 0.0
2018-Feb-16 12:30N 29°47' W 092°11'0 0.0
2018-Feb-16 12:00N 29°47' W 092°11'0 0.0
2018-Feb-16 11:30N 29°47' W 092°11'0 0.0
2018-Feb-16 11:00N 29°47' W 092°11'0 0.0
2018-Feb-16 10:30N 29°47' W 092°11'0 0.0
2018-Feb-16 10:00N 29°47' W 092°11'0 0.0
2018-Feb-16 09:30N 29°47' W 092°11'0 0.0
2018-Feb-16 09:00N 29°47' W 092°11'0 0.0
2018-Feb-16 08:30N 29°47' W 092°11'0 0.0
2018-Feb-16 08:00N 29°47' W 092°11'0 0.0
2018-Feb-16 07:30N 29°47' W 092°11'0 0.0
2018-Feb-16 07:00N 29°47' W 092°11'0 0.0
2018-Feb-16 06:30N 29°47' W 092°11'0 0.0
2018-Feb-16 06:00N 29°47' W 092°11'0 0.0
2018-Feb-16 05:30N 29°47' W 092°11'0 0.0
2018-Feb-16 05:00N 29°47' W 092°11'0 0.0
2018-Feb-16 04:30N 29°47' W 092°11'0 0.0
2018-Feb-16 04:00N 29°47' W 092°11'0 0.0
2018-Feb-16 03:30N 29°47' W 092°11'0 0.0
2018-Feb-16 03:00N 29°47' W 092°11'0 0.0
2018-Feb-16 02:30N 29°47' W 092°11'0 0.0
2018-Feb-16 02:00N 29°47' W 092°11'0 0.0
2018-Feb-16 01:30N 29°47' W 092°11'0 0.0
2018-Feb-16 01:00N 29°47' W 092°11'0 0.0
2018-Feb-16 00:30N 29°47' W 092°11'0 0.0
2018-Feb-16 00:00N 29°47' W 092°11'0 0.0
2018-Feb-15 23:30N 29°47' W 092°11'0 0.0
2018-Feb-15 23:00N 29°47' W 092°11'0 0.0
2018-Feb-15 22:30N 29°47' W 092°11'0 0.0
2018-Feb-15 22:00N 29°47' W 092°11'0 0.0
2018-Feb-15 21:29N 29°47' W 092°11'0 0.0
2018-Feb-15 21:00N 29°47' W 092°11'0 0.0
2018-Feb-15 20:30N 29°47' W 092°11'0 0.0
2018-Feb-15 20:00N 29°47' W 092°11'0 0.0
2018-Feb-15 19:30N 29°47' W 092°11'0 0.0
2018-Feb-15 19:00N 29°47' W 092°11'0 0.0
2018-Feb-15 18:30N 29°47' W 092°11'0 0.0
2018-Feb-15 18:00N 29°47' W 092°11'0 0.0
2018-Feb-15 17:30N 29°47' W 092°11'0 0.0
2018-Feb-15 17:00N 29°47' W 092°11'0 0.0
2018-Feb-15 16:30N 29°47' W 092°11'0 0.0
2018-Feb-15 16:00N 29°47' W 092°11'0 0.0
2018-Feb-15 15:30N 29°47' W 092°11'0 0.0
2018-Feb-15 15:00N 29°47' W 092°11'0 0.0
2018-Feb-15 14:30N 29°47' W 092°11'0 0.0
2018-Feb-15 14:00N 29°47' W 092°11'1 1.0
2018-Feb-15 13:29N 29°47' W 092°11'1 2.4
2018-Feb-15 13:00N 29°47' W 092°09'0 0.0
2018-Feb-15 12:30N 29°47' W 092°09'0 0.0
2018-Feb-15 12:00N 29°47' W 092°09'0 0.0
2018-Feb-15 11:30N 29°47' W 092°09'0 0.0
2018-Feb-15 11:00N 29°47' W 092°09'0 0.0
2018-Feb-15 10:30N 29°47' W 092°09'0 0.0
2018-Feb-15 10:00N 29°47' W 092°09'0 0.0
2018-Feb-15 09:30N 29°47' W 092°09'0 0.0
2018-Feb-15 09:00N 29°47' W 092°09'0 0.0
2018-Feb-15 08:30N 29°47' W 092°09'0 0.0
2018-Feb-15 08:00N 29°47' W 092°09'0 0.0
2018-Feb-15 07:30N 29°47' W 092°09'0 0.0
2018-Feb-15 07:00N 29°47' W 092°09'0 0.0
2018-Feb-15 06:30N 29°47' W 092°09'0 0.0
2018-Feb-15 06:00N 29°47' W 092°09'0 0.0
2018-Feb-15 05:30N 29°47' W 092°09'0 0.0
2018-Feb-15 05:00N 29°47' W 092°09'0 0.0
2018-Feb-15 04:30N 29°47' W 092°09'0 0.0
2018-Feb-15 04:00N 29°47' W 092°09'0 0.0
2018-Feb-15 03:30N 29°47' W 092°09'0 0.0
2018-Feb-15 03:00N 29°47' W 092°09'0 0.0
2018-Feb-15 02:30N 29°47' W 092°09'3 6.9
2018-Feb-15 02:00N 29°45' W 092°13'3 6.6
2018-Feb-15 01:30N 29°42' W 092°15'4 6.6
2018-Feb-15 00:58N 29°39' W 092°16'  
2018-Feb-08 19:30N 29°47' W 092°11'  

Dump ship's entire track history